sensor_id;sensor_type;location;lat;lon;timestamp;pressure;altitude;pressure_sealevel;temperature;humidity
43281;BME280;62175;49.416;8.690;2023-12-28T00:00:57;100593.76;;;11.00;42.92
43281;BME280;62175;49.416;8.690;2023-12-28T00:03:26;100594.97;;;11.87;42.09
43281;BME280;62175;49.416;8.690;2023-12-28T00:05:59;100587.18;;;11.46;43.76
43281;BME280;62175;49.416;8.690;2023-12-28T00:08:26;100590.60;;;11.72;41.80
43281;BME280;62175;49.416;8.690;2023-12-28T00:10:55;100605.01;;;11.48;41.39
43281;BME280;62175;49.416;8.690;2023-12-28T00:13:23;100595.92;;;10.71;43.24
43281;BME280;62175;49.416;8.690;2023-12-28T00:15:50;100601.14;;;11.34;41.34
43281;BME280;62175;49.416;8.690;2023-12-28T00:18:18;100603.64;;;11.89;42.79
43281;BME280;62175;49.416;8.690;2023-12-28T00:20:52;100605.99;;;11.95;43.12
43281;BME280;62175;49.416;8.690;2023-12-28T00:48:19;100607.11;;;11.23;43.20
43281;BME280;62175;49.416;8.690;2023-12-28T00:50:47;100597.26;;;9.65;43.50
43281;BME280;62175;49.416;8.690;2023-12-28T00:53:16;100604.24;;;11.52;41.34
43281;BME280;62175;49.416;8.690;2023-12-28T00:55:44;100606.81;;;11.67;43.05
43281;BME280;62175;49.416;8.690;2023-12-28T00:58:17;100610.50;;;11.55;42.38
43281;BME280;62175;49.416;8.690;2023-12-28T01:01:34;100591.89;;;11.94;41.81
43281;BME280;62175;49.416;8.690;2023-12-28T01:04:01;100593.16;;;11.82;41.41
43281;BME280;62175;49.416;8.690;2023-12-28T01:06:29;100588.99;;;11.70;41.57
43281;BME280;62175;49.416;8.690;2023-12-28T01:09:06;100586.15;;;11.69;42.00
43281;BME280;62175;49.416;8.690;2023-12-28T01:11:35;100593.68;;;11.38;40.47
43281;BME280;62175;49.416;8.690;2023-12-28T01:14:02;100591.48;;;11.86;40.47
43281;BME280;62175;49.416;8.690;2023-12-28T01:16:30;100601.15;;;11.20;41.21
43281;BME280;62175;49.416;8.690;2023-12-28T01:18:58;100615.98;;;11.98;42.18
43281;BME280;62175;49.416;8.690;2023-12-28T01:21:25;100629.24;;;11.98;41.44
43281;BME280;62175;49.416;8.690;2023-12-28T01:23:53;100614.05;;;11.51;41.13
43281;BME280;62175;49.416;8.690;2023-12-28T01:26:20;100619.09;;;11.79;43.19
43281;BME280;62175;49.416;8.690;2023-12-28T01:28:51;100634.62;;;11.41;40.93
43281;BME280;62175;49.416;8.690;2023-12-28T01:31:18;100647.74;;;11.90;41.95
43281;BME280;62175;49.416;8.690;2023-12-28T01:33:45;100631.06;;;11.45;42.02
43281;BME280;62175;49.416;8.690;2023-12-28T01:36:20;100626.22;;;12.00;42.10
43281;BME280;62175;49.416;8.690;2023-12-28T01:38:50;100636.66;;;11.51;40.74
43281;BME280;62175;49.416;8.690;2023-12-28T01:41:19;100643.63;;;11.47;40.89
43281;BME280;62175;49.416;8.690;2023-12-28T01:43:46;100638.45;;;11.61;41.85
43281;BME280;62175;49.416;8.690;2023-12-28T01:46:16;100632.08;;;11.57;41.50
43281;BME280;62175;49.416;8.690;2023-12-28T01:48:46;100628.97;;;11.80;40.99
43281;BME280;62175;49.416;8.690;2023-12-28T01:51:14;100624.67;;;11.31;42.24
43281;BME280;62175;49.416;8.690;2023-12-28T01:53:43;100623.45;;;11.80;40.25
43281;BME280;62175;49.416;8.690;2023-12-28T01:56:11;100612.49;;;11.50;40.07
43281;BME280;62175;49.416;8.690;2023-12-28T01:58:46;100628.23;;;11.74;39.38
43281;BME280;62175;49.416;8.690;2023-12-28T23:02:59;100593.25;;;11.92;61.59
43281;BME280;62175;49.416;8.690;2023-12-28T23:05:26;100589.75;;;12.17;61.98
43281;BME280;62175;49.416;8.690;2023-12-28T23:07:53;100587.18;;;12.03;60.71
43281;BME280;62175;49.416;8.690;2023-12-28T23:10:20;100583.13;;;12.22;60.01
43281;BME280;62175;49.416;8.690;2023-12-28T23:12:47;100584.22;;;12.48;60.76
43281;BME280;62175;49.416;8.690;2023-12-28T23:15:15;100586.24;;;12.06;60.83
43281;BME280;62175;49.416;8.690;2023-12-28T23:17:42;100586.57;;;12.06;60.99
43281;BME280;62175;49.416;8.690;2023-12-28T23:20:10;100588.29;;;12.35;60.52
43281;BME280;62175;49.416;8.690;2023-12-28T23:22:37;100587.83;;;12.29;60.30
43281;BME280;62175;49.416;8.690;2023-12-28T23:25:04;100580.43;;;12.14;60.42
43281;BME280;62175;49.416;8.690;2023-12-28T23:27:31;100588.87;;;12.43;61.16
43281;BME280;62175;49.416;8.690;2023-12-28T23:29:58;100589.62;;;12.59;59.90
43281;BME280;62175;49.416;8.690;2023-12-28T23:32:25;100587.98;;;12.66;60.28
43281;BME280;62175;49.416;8.690;2023-12-28T23:34:53;100585.99;;;12.68;59.79
43281;BME280;62175;49.416;8.690;2023-12-28T23:37:20;100589.52;;;11.41;61.81
43281;BME280;62175;49.416;8.690;2023-12-28T23:39:47;100580.61;;;12.12;60.64
43281;BME280;62175;49.416;8.690;2023-12-28T23:42:14;100583.80;;;12.55;61.47
43281;BME280;62175;49.416;8.690;2023-12-28T23:44:41;100581.90;;;12.49;60.04
43281;BME280;62175;49.416;8.690;2023-12-28T23:47:09;100580.16;;;12.56;60.31
43281;BME280;62175;49.416;8.690;2023-12-28T23:49:36;100574.46;;;12.51;60.49
43281;BME280;62175;49.416;8.690;2023-12-28T23:52:03;100576.25;;;12.62;60.64
43281;BME280;62175;49.416;8.690;2023-12-28T23:54:30;100576.88;;;12.26;60.16
43281;BME280;62175;49.416;8.690;2023-12-28T23:56:57;100569.46;;;12.46;60.50
43281;BME280;62175;49.416;8.690;2023-12-28T23:59:25;100568.15;;;12.32;60.53
